Information Last Ob Photographs Calibration Meteogram Network Table Neighbors Monthly Summaries Observation History Wind Roses Custom Wind Roses Data Calendar Satellite Cloud Product Download

Most Recent Observation

This application displays the last observation received by the IEM from this site. The time stamp is in America/Chicago timezone.

Observation Local Time24 Feb 2024, 10:55 PM
Observation UTC Time2024-02-25T04:55:00Z
Air Temp [F]37.4
Maximum Air Temperature [F]48.2
Minimum Air Temperature [F]12.2
Dew Point [F]21.2
Wind DirectionSSW (210 degrees)
Wind Speed [knots]12
Altimeter [inches]29.74
Raw Observation/ProductKHPT 250455Z AUTO 21012KT 10SM CLR 03/M06 A2974 RMK AO2
Cloud Layer 1: CLR ( feet)

This data was provided by a JSON(P) webservice. You can find more JSON services.